createdAt,value
2022-08-18T00:02:05.418Z,16.77
2022-08-18T00:04:52.822Z,15.98
2022-08-18T00:07:41.980Z,15.32
2022-08-18T00:10:32.845Z,15.52
2022-08-18T00:13:18.009Z,16.00
2022-08-18T00:16:03.273Z,15.18
2022-08-18T00:18:49.790Z,15.10
2022-08-18T00:21:34.750Z,14.82
2022-08-18T00:24:20.081Z,17.33
2022-08-18T00:27:06.835Z,17.63
2022-08-18T00:29:54.551Z,16.65
2022-08-18T00:32:49.602Z,17.88
2022-08-18T00:35:37.956Z,18.10
2022-08-18T00:38:24.819Z,20.15
2022-08-18T00:41:10.679Z,20.38
2022-08-18T00:43:58.431Z,20.77
2022-08-18T00:46:43.658Z,20.83
2022-08-18T00:49:28.865Z,22.40
2022-08-18T00:52:16.617Z,21.90
2022-08-18T00:55:04.083Z,21.58
2022-08-18T00:57:52.221Z,21.00
2022-08-18T01:00:38.144Z,21.13
2022-08-18T01:03:25.296Z,19.30
2022-08-18T01:06:22.354Z,18.38
2022-08-18T01:09:08.722Z,17.70
2022-08-18T01:11:53.685Z,16.85
2022-08-18T01:14:38.917Z,16.42
2022-08-18T01:17:44.619Z,15.43
2022-08-18T01:21:20.775Z,14.85
2022-08-18T01:24:12.705Z,13.90
2022-08-18T01:26:57.731Z,15.30
2022-08-18T01:29:43.694Z,13.93
2022-08-18T01:32:28.695Z,13.85
2022-08-18T01:35:17.457Z,12.52
2022-08-18T01:38:02.578Z,11.77
2022-08-18T01:41:22.453Z,12.82
2022-08-18T01:43:52.613Z,12.60
2022-08-18T01:46:41.525Z,12.25
2022-08-18T01:49:28.817Z,11.47
2022-08-18T01:52:21.816Z,12.93
2022-08-18T01:55:09.944Z,11.85
2022-08-18T01:57:55.644Z,11.23
2022-08-18T02:00:42.102Z,11.27
2022-08-18T02:03:30.879Z,12.52
2022-08-18T02:06:18.577Z,11.88
2022-08-18T02:09:23.675Z,11.68
2022-08-18T02:12:10.030Z,11.05
2022-08-18T02:14:55.189Z,11.25
2022-08-18T02:17:46.115Z,12.13
2022-08-18T02:20:31.856Z,11.80
2022-08-18T02:23:17.765Z,13.20
2022-08-18T02:26:08.681Z,12.23
2022-08-18T02:28:54.129Z,12.65
2022-08-18T02:31:39.232Z,12.00
2022-08-18T02:34:25.487Z,12.20
2022-08-18T02:37:15.198Z,12.63
2022-08-18T02:40:01.331Z,12.50
2022-08-18T02:42:47.172Z,11.48
2022-08-18T02:45:32.761Z,12.90
2022-08-18T02:48:24.286Z,12.43
2022-08-18T02:51:15.545Z,12.95
2022-08-18T02:54:00.630Z,13.27
2022-08-18T02:56:46.962Z,14.35
2022-08-18T02:59:32.184Z,13.85
2022-08-18T03:02:18.785Z,13.95
2022-08-18T03:05:05.826Z,12.38
2022-08-18T03:07:51.292Z,13.02
2022-08-18T03:10:36.930Z,12.75
2022-08-18T03:13:21.957Z,12.68
2022-08-18T03:16:07.434Z,12.95
2022-08-18T03:18:53.576Z,13.05
2022-08-18T03:21:38.893Z,12.43
2022-08-18T03:24:26.461Z,12.75
2022-08-18T03:27:12.761Z,12.38
2022-08-18T03:29:58.776Z,11.88
2022-08-18T03:32:45.907Z,12.80
2022-08-18T03:35:31.329Z,12.15
2022-08-18T03:38:16.591Z,11.60
2022-08-18T03:41:02.013Z,10.60
2022-08-18T03:43:50.951Z,12.23
2022-08-18T03:49:22.363Z,11.82
2022-08-18T03:52:09.689Z,12.98
2022-08-18T03:54:54.884Z,13.30
2022-08-18T03:57:40.183Z,13.43
2022-08-18T04:00:27.361Z,13.32
2022-08-18T04:03:12.361Z,12.73
2022-08-18T04:05:57.717Z,13.45
2022-08-18T04:08:44.236Z,12.27
2022-08-18T04:11:35.795Z,13.15
2022-08-18T04:14:25.124Z,13.13
2022-08-18T04:17:10.623Z,11.37
2022-08-18T04:19:56.917Z,12.55
2022-08-18T04:22:42.750Z,12.48
2022-08-18T04:25:32.539Z,12.35
2022-08-18T04:28:18.291Z,12.60
2022-08-18T04:31:10.298Z,12.18
2022-08-18T04:33:58.332Z,12.98
2022-08-18T04:36:44.096Z,12.60
2022-08-18T04:39:30.200Z,13.88
2022-08-18T04:42:15.990Z,14.27
2022-08-18T04:45:01.389Z,13.88
2022-08-18T04:47:46.651Z,13.48
2022-08-18T04:50:32.025Z,14.10
2022-08-18T04:53:35.889Z,14.68
2022-08-18T04:56:27.118Z,15.30
2022-08-18T04:59:13.853Z,16.10
2022-08-18T05:02:01.700Z,16.77
2022-08-18T05:04:47.210Z,15.98
2022-08-18T05:07:32.477Z,16.45
2022-08-18T05:10:17.840Z,16.77
2022-08-18T05:13:03.335Z,16.58
2022-08-18T05:16:18.043Z,16.67
2022-08-18T05:19:07.117Z,16.52
2022-08-18T05:21:57.655Z,16.90
2022-08-18T05:24:46.293Z,16.88
2022-08-18T05:27:36.870Z,16.70
2022-08-18T05:30:22.160Z,16.35
2022-08-18T05:33:10.779Z,17.23
2022-08-18T05:36:05.481Z,15.98
2022-08-18T05:39:04.691Z,15.40
2022-08-18T05:41:52.713Z,15.57
2022-08-18T05:44:43.003Z,15.10
2022-08-18T05:47:32.818Z,15.45
2022-08-18T05:50:20.789Z,14.20
2022-08-18T05:53:44.202Z,15.38
2022-08-18T05:56:49.043Z,15.88
2022-08-18T05:59:39.421Z,15.85
2022-08-18T06:02:32.376Z,14.73
2022-08-18T06:05:52.803Z,13.98
2022-08-18T06:08:45.520Z,14.73
2022-08-18T06:11:30.521Z,16.73
2022-08-18T06:14:16.284Z,16.25
2022-08-18T06:17:08.585Z,15.45
2022-08-18T06:20:10.264Z,14.18
2022-08-18T06:23:18.492Z,15.68
2022-08-18T06:26:34.307Z,14.25
2022-08-18T06:29:24.864Z,14.75
2022-08-18T06:32:34.469Z,15.57
2022-08-18T06:38:38.364Z,14.30
2022-08-18T06:41:41.506Z,16.00
2022-08-18T06:44:49.109Z,16.40
2022-08-18T06:47:44.601Z,15.88
2022-08-18T06:50:43.545Z,16.10
2022-08-18T06:53:52.069Z,16.58
2022-08-18T06:56:40.113Z,16.48
2022-08-18T06:59:29.666Z,15.93
2022-08-18T07:02:26.633Z,16.20
2022-08-18T07:05:14.651Z,16.02
2022-08-18T07:08:05.746Z,16.10
2022-08-18T07:10:52.573Z,15.48
2022-08-18T07:13:45.289Z,16.40
2022-08-18T07:17:00.743Z,16.63
2022-08-18T07:19:38.854Z,15.93
2022-08-18T07:22:38.939Z,15.88
2022-08-18T07:25:45.253Z,15.48
2022-08-18T07:28:38.072Z,16.00
2022-08-18T07:31:46.553Z,16.05
2022-08-18T07:34:42.751Z,16.20
2022-08-18T07:37:36.932Z,15.02
2022-08-18T07:40:32.792Z,14.93
2022-08-18T07:43:27.585Z,14.35
2022-08-18T07:46:23.383Z,14.10
2022-08-18T07:49:08.369Z,13.75
2022-08-18T07:52:01.374Z,13.35
2022-08-18T07:54:57.545Z,12.98
2022-08-18T07:57:47.823Z,13.27
2022-08-18T08:00:58.860Z,12.63
2022-08-18T08:03:59.242Z,12.45
2022-08-18T08:07:26.243Z,13.90
2022-08-18T08:10:11.953Z,13.68
2022-08-18T08:13:51.351Z,13.02
2022-08-18T08:16:40.626Z,13.15
2022-08-18T08:20:00.903Z,13.15
2022-08-18T08:23:05.805Z,13.07
2022-08-18T08:26:24.694Z,12.82
2022-08-18T08:32:06.848Z,13.35
2022-08-18T08:35:03.496Z,13.98
2022-08-18T08:38:12.327Z,15.27
2022-08-18T08:41:12.991Z,14.00
2022-08-18T08:44:17.645Z,14.07
2022-08-18T08:47:10.702Z,14.18
2022-08-18T08:50:02.757Z,14.48
2022-08-18T08:52:57.200Z,13.20
2022-08-18T08:55:48.527Z,14.45
2022-08-18T08:58:59.020Z,13.90
2022-08-18T09:01:50.137Z,13.55
2022-08-18T09:04:35.554Z,13.88
2022-08-18T09:07:26.785Z,13.02
2022-08-18T09:10:24.280Z,13.75
2022-08-18T09:13:29.339Z,13.75
2022-08-18T09:16:36.544Z,13.07
2022-08-18T09:19:47.757Z,13.50
2022-08-18T09:22:54.485Z,12.75
2022-08-18T09:25:41.762Z,13.30
2022-08-18T09:28:29.709Z,13.75
2022-08-18T09:31:19.390Z,14.93
2022-08-18T09:34:21.762Z,15.90
2022-08-18T09:37:21.526Z,16.33
2022-08-18T09:40:59.296Z,16.75
2022-08-18T09:44:18.033Z,16.07
2022-08-18T09:47:13.291Z,15.82
2022-08-18T09:50:04.548Z,13.90
2022-08-18T09:52:50.002Z,14.02
2022-08-18T09:55:35.877Z,13.13
2022-08-18T09:58:49.888Z,12.65
2022-08-18T10:01:39.884Z,13.32
2022-08-18T10:04:33.096Z,12.32
2022-08-18T10:07:22.033Z,13.52
2022-08-18T10:11:01.300Z,12.57
2022-08-18T10:13:58.954Z,13.43
2022-08-18T10:17:23.299Z,13.63
2022-08-18T10:20:09.739Z,14.75
2022-08-18T10:23:49.533Z,13.57
2022-08-18T10:26:54.049Z,8.90
2022-08-18T10:29:51.305Z,9.20
2022-08-18T10:35:58.929Z,11.88
2022-08-18T10:38:49.683Z,13.35
2022-08-18T10:41:41.475Z,13.00
2022-08-18T10:44:29.634Z,10.80
2022-08-18T10:50:53.262Z,13.20
2022-08-18T10:53:50.643Z,11.55
2022-08-18T10:56:52.328Z,12.75
2022-08-18T11:00:04.972Z,13.75
2022-08-18T11:06:28.338Z,13.38
2022-08-18T11:09:13.793Z,14.13
2022-08-18T11:12:01.817Z,15.15
2022-08-18T11:14:55.736Z,13.52
2022-08-18T11:18:05.603Z,14.10
2022-08-18T11:21:43.443Z,13.43
2022-08-18T11:24:32.020Z,14.38
2022-08-18T11:27:23.885Z,11.85
2022-08-18T11:30:12.346Z,9.80
2022-08-18T11:33:01.149Z,9.65
2022-08-18T11:38:56.582Z,7.72
2022-08-18T11:41:48.704Z,8.95
2022-08-18T11:44:38.232Z,8.65
2022-08-18T11:47:27.871Z,8.20
2022-08-18T11:50:27.505Z,7.70
2022-08-18T11:53:35.248Z,8.35
2022-08-18T11:56:35.687Z,8.80
2022-08-18T11:59:52.581Z,9.25
2022-08-18T12:02:31.338Z,8.73
2022-08-18T12:05:18.030Z,9.23
2022-08-18T12:08:07.672Z,8.77
2022-08-18T12:11:26.521Z,8.95
2022-08-18T12:17:25.926Z,9.48
2022-08-18T12:20:15.611Z,9.35
2022-08-18T12:23:01.572Z,9.10
2022-08-18T12:25:46.858Z,9.40
2022-08-18T12:28:37.154Z,7.63
2022-08-18T12:31:28.894Z,7.28
2022-08-18T12:34:27.455Z,7.60
2022-08-18T12:37:54.451Z,7.47
2022-08-18T12:40:22.783Z,7.47
2022-08-18T12:43:08.288Z,7.13
2022-08-18T12:45:53.609Z,7.63
2022-08-18T12:48:39.601Z,7.00
2022-08-18T12:51:30.647Z,7.68
2022-08-18T12:54:16.072Z,6.80
2022-08-18T12:57:06.155Z,6.57
2022-08-18T12:59:54.796Z,6.60
2022-08-18T13:05:30.058Z,7.32
2022-08-18T13:08:27.623Z,6.43
2022-08-18T13:11:23.417Z,6.45
2022-08-18T13:14:09.334Z,5.95
2022-08-18T13:16:55.296Z,6.90
2022-08-18T13:19:40.555Z,7.30
2022-08-18T13:22:32.406Z,6.43
2022-08-18T13:25:32.542Z,7.57
2022-08-18T13:28:17.922Z,6.63
2022-08-18T13:31:05.332Z,6.20
2022-08-18T13:33:57.914Z,7.03
2022-08-18T13:36:46.209Z,8.80
2022-08-18T13:39:34.268Z,7.97
2022-08-18T13:42:26.468Z,6.93
2022-08-18T13:45:22.697Z,7.03
2022-08-18T13:48:11.342Z,7.20
2022-08-18T13:51:01.095Z,7.00
2022-08-18T13:53:58.901Z,7.38
2022-08-18T13:56:52.332Z,7.95
2022-08-18T13:59:38.307Z,8.55
2022-08-18T14:02:31.596Z,7.75
2022-08-18T14:05:17.638Z,7.38
2022-08-18T14:08:03.723Z,7.50
2022-08-18T14:10:55.850Z,7.22
2022-08-18T14:13:43.924Z,7.38
2022-08-18T14:16:29.697Z,7.57
2022-08-18T14:19:34.538Z,7.22
2022-08-18T14:22:38.263Z,7.03
2022-08-18T14:25:43.099Z,6.47
2022-08-18T14:28:29.448Z,7.45
2022-08-18T14:31:14.756Z,6.53
2022-08-18T14:34:06.412Z,6.40
2022-08-18T14:36:51.532Z,7.10
2022-08-18T14:39:38.454Z,5.90
2022-08-18T14:42:41.102Z,5.93
2022-08-18T14:45:34.208Z,6.63
2022-08-18T14:48:22.921Z,6.22
2022-08-18T14:51:09.870Z,6.30
2022-08-18T14:53:55.965Z,6.28
2022-08-18T14:56:41.198Z,5.28
2022-08-18T14:59:28.504Z,6.10
2022-08-18T15:02:13.686Z,6.15
2022-08-18T15:04:58.905Z,6.20
2022-08-18T15:07:45.917Z,6.18
2022-08-18T15:10:33.088Z,5.68
2022-08-18T15:13:18.306Z,5.63
2022-08-18T15:16:04.144Z,6.13
2022-08-18T15:18:49.761Z,5.28
2022-08-18T15:21:54.558Z,5.53
2022-08-18T15:25:00.446Z,5.28
2022-08-18T15:27:45.832Z,5.10
2022-08-18T15:30:32.098Z,5.13
2022-08-18T15:33:18.523Z,5.15
2022-08-18T15:36:10.224Z,4.75
2022-08-18T15:38:56.677Z,5.10
2022-08-18T15:44:34.642Z,5.35
2022-08-18T15:47:20.914Z,4.70
2022-08-18T15:50:21.632Z,4.53
2022-08-18T15:53:12.220Z,4.70
2022-08-18T15:55:58.710Z,4.70
2022-08-18T15:58:50.129Z,4.85
2022-08-18T16:01:40.557Z,4.78
2022-08-18T16:04:27.586Z,4.40
2022-08-18T16:07:14.809Z,4.45
2022-08-18T16:10:04.790Z,4.70
2022-08-18T16:12:51.089Z,4.97
2022-08-18T16:15:42.053Z,4.57
2022-08-18T16:18:29.466Z,4.50
2022-08-18T16:21:17.762Z,4.55
2022-08-18T16:24:03.163Z,4.50
2022-08-18T16:26:48.066Z,4.10
2022-08-18T16:29:33.519Z,4.80
2022-08-18T16:32:18.617Z,5.05
2022-08-18T16:35:04.927Z,4.15
2022-08-18T16:37:50.269Z,4.57
2022-08-18T16:40:36.647Z,4.05
2022-08-18T16:43:21.888Z,4.53
2022-08-18T16:46:12.463Z,4.05
2022-08-18T16:48:58.437Z,3.70
2022-08-18T16:51:45.487Z,3.38
2022-08-18T16:54:31.190Z,3.50
2022-08-18T16:57:53.327Z,3.50
2022-08-18T17:00:59.135Z,3.15
2022-08-18T17:04:03.427Z,3.45
2022-08-18T17:06:49.683Z,3.50
2022-08-18T17:09:35.573Z,3.42
2022-08-18T17:12:20.881Z,3.40
2022-08-18T17:15:06.519Z,3.28
2022-08-18T17:17:51.630Z,3.50
2022-08-18T17:20:36.961Z,3.22
2022-08-18T17:23:22.701Z,3.33
2022-08-18T17:26:33.233Z,2.90
2022-08-18T17:29:22.983Z,3.42
2022-08-18T17:32:24.612Z,3.20
2022-08-18T17:35:35.057Z,3.25
2022-08-18T17:38:51.071Z,3.28
2022-08-18T17:41:56.385Z,2.88
2022-08-18T17:44:46.276Z,3.10
2022-08-18T17:47:50.577Z,2.85
2022-08-18T17:50:58.778Z,2.67
2022-08-18T17:53:45.324Z,3.20
2022-08-18T17:56:42.332Z,3.13
2022-08-18T17:59:52.030Z,3.38
2022-08-18T18:02:38.180Z,3.47
2022-08-18T18:05:23.152Z,3.10
2022-08-18T18:08:09.721Z,3.28
2022-08-18T18:11:09.846Z,3.28
2022-08-18T18:13:55.384Z,3.35
2022-08-18T18:16:40.537Z,3.30
2022-08-18T18:19:29.899Z,2.88
2022-08-18T18:22:24.103Z,3.35
2022-08-18T18:25:11.162Z,3.65
2022-08-18T18:27:56.463Z,3.10
2022-08-18T18:30:43.766Z,3.47
2022-08-18T18:33:30.498Z,3.80
2022-08-18T18:36:34.980Z,3.35
2022-08-18T18:39:37.987Z,3.42
2022-08-18T18:42:30.131Z,3.45
2022-08-18T18:45:22.881Z,3.45
2022-08-18T18:48:45.059Z,3.40
2022-08-18T18:52:13.563Z,3.55
2022-08-18T18:55:07.328Z,3.55
2022-08-18T18:58:29.752Z,3.60
2022-08-18T19:01:43.892Z,3.60
2022-08-18T19:04:33.825Z,3.53
2022-08-18T19:07:25.375Z,3.67
2022-08-18T19:10:18.539Z,3.20
2022-08-18T19:13:32.720Z,3.15
2022-08-18T19:16:30.803Z,4.03
2022-08-18T19:19:36.109Z,3.60
2022-08-18T19:22:33.226Z,3.25
2022-08-18T19:25:22.897Z,3.17
2022-08-18T19:28:28.362Z,3.30
2022-08-18T19:31:34.803Z,3.20
2022-08-18T19:34:30.096Z,3.25
2022-08-18T19:37:18.329Z,3.40
2022-08-18T19:40:21.261Z,3.15
2022-08-18T19:43:12.437Z,3.50
2022-08-18T19:46:16.294Z,3.42
2022-08-18T19:49:16.622Z,2.90
2022-08-18T19:52:46.233Z,3.53
2022-08-18T19:55:53.928Z,3.38
2022-08-18T19:59:15.530Z,3.65
2022-08-18T20:02:41.861Z,3.60
2022-08-18T20:05:32.885Z,3.30
2022-08-18T20:08:50.522Z,3.20
2022-08-18T20:12:01.025Z,3.55
2022-08-18T20:15:12.682Z,3.15
2022-08-18T20:18:06.381Z,3.75
2022-08-18T20:21:20.202Z,4.00
2022-08-18T20:24:24.132Z,3.05
2022-08-18T20:27:34.994Z,2.95
2022-08-18T20:30:29.911Z,3.72
2022-08-18T20:33:24.181Z,3.40
2022-08-18T20:36:28.655Z,3.30
2022-08-18T20:39:32.855Z,3.30
2022-08-18T20:42:21.043Z,3.25
2022-08-18T20:45:13.316Z,3.58
2022-08-18T20:48:16.278Z,3.10
2022-08-18T20:51:15.038Z,3.00
2022-08-18T20:54:18.086Z,3.35
2022-08-18T20:57:05.953Z,3.85
2022-08-18T21:00:03.817Z,4.00
2022-08-18T21:02:55.238Z,3.92
2022-08-18T21:05:44.272Z,3.05
2022-08-18T21:08:32.942Z,3.43
2022-08-18T21:11:30.863Z,3.83
2022-08-18T21:17:15.379Z,3.78
2022-08-18T21:20:04.540Z,3.45
2022-08-18T21:22:51.075Z,3.15
2022-08-18T21:25:40.944Z,3.33
2022-08-18T21:28:31.393Z,3.40
2022-08-18T21:31:42.510Z,3.35
2022-08-18T21:34:41.806Z,3.25
2022-08-18T21:37:32.754Z,3.58
2022-08-18T21:40:18.622Z,3.30
2022-08-18T21:43:03.733Z,3.50
2022-08-18T21:45:58.965Z,3.70
2022-08-18T21:48:50.808Z,3.88
2022-08-18T21:51:48.584Z,3.15
2022-08-18T21:54:34.377Z,3.17
2022-08-18T21:57:26.593Z,3.03
2022-08-18T22:00:23.848Z,3.30
2022-08-18T22:03:26.007Z,3.40
2022-08-18T22:06:22.200Z,3.10
2022-08-18T22:09:33.415Z,3.30
2022-08-18T22:12:52.126Z,3.10
2022-08-18T22:15:46.155Z,3.63
2022-08-18T22:18:39.602Z,2.67
2022-08-18T22:21:32.510Z,3.53
2022-08-18T22:24:21.366Z,3.40
2022-08-18T22:27:20.014Z,3.42
2022-08-18T22:30:05.441Z,3.75
2022-08-18T22:32:50.761Z,3.28
2022-08-18T22:35:35.876Z,3.33
2022-08-18T22:38:21.214Z,3.58
2022-08-18T22:41:06.372Z,3.78
2022-08-18T22:43:55.106Z,3.95
2022-08-18T22:46:40.742Z,3.95
2022-08-18T22:49:26.306Z,3.35
2022-08-18T22:52:15.421Z,3.20
2022-08-18T22:55:02.763Z,3.40
2022-08-18T22:57:55.900Z,3.42
2022-08-18T23:00:42.660Z,3.55
2022-08-18T23:03:28.447Z,3.78
2022-08-18T23:06:14.826Z,3.90
2022-08-18T23:09:02.844Z,3.83
2022-08-18T23:11:47.779Z,3.90
2022-08-18T23:14:33.778Z,4.45
2022-08-18T23:17:21.411Z,4.68
2022-08-18T23:20:11.398Z,5.28
2022-08-18T23:22:56.961Z,5.43
2022-08-18T23:25:42.761Z,5.43
2022-08-18T23:28:28.142Z,4.53
2022-08-18T23:31:13.806Z,4.97
2022-08-18T23:34:00.496Z,4.63
2022-08-18T23:36:52.029Z,4.85
2022-08-18T23:39:38.885Z,4.70
2022-08-18T23:42:23.890Z,4.63
2022-08-18T23:45:10.131Z,4.80
2022-08-18T23:47:57.738Z,4.78
2022-08-18T23:50:44.934Z,4.55
2022-08-18T23:53:31.089Z,4.50
2022-08-18T23:56:15.972Z,4.70
2022-08-18T23:59:02.342Z,4.47
